Flight Track Log - Related Links

Times and Time Zones

All times are in EDT time to prevent confusion due to time zone crossing. See the SWA385 flight status page for this flight to view local times or setup timezone preferences in your user account.

Time Position Orientation Groundspeed Altitude Reporting Facility
EDT Latitude Longitude Course Direction KTS MPH feet Rate Location/Type
Thu 07:59:37 PM 41.7667 -87.7667 251° West 126 145 1,900  Level Chicago TRACON
Thu 08:00:37 PM 41.7500 -87.8333 251° West 209 241 3,200 964 Climbing Chicago TRACON
Thu 08:01:54 PM 41.7336 -87.9342 258° West 240 276 4,100 691 Climbing Chicago Center
Thu 08:02:56 PM 41.7328 -88.0492 269° West 257 296 4,800 774 Climbing Chicago Center
Thu 08:03:58 PM 41.7325 -88.1436 270° West 259 298 5,700 581 Climbing Chicago Center
Thu 08:05:00 PM 41.7558 -88.2353 289° West 267 307 6,000 1,355 Climbing Chicago Center
Thu 08:06:02 PM 41.7722 -88.3289 283° West 266 306 8,500 2,661 Climbing Chicago Center
Thu 08:07:04 PM 41.7700 -88.4300 268° West 276 318 11,500 2,226 Climbing Chicago Center
Thu 08:08:06 PM 41.7672 -88.5736 269° West 330 380 13,100 1,306 Climbing Chicago Center
Thu 08:09:08 PM 41.8075 -88.6983 293° West 376 433 14,200 1,016 Climbing Chicago Center
Thu 08:10:10 PM 41.8694 -88.8186 305° West 390 449 15,200 1,597 Climbing Chicago Center
Thu 08:11:12 PM 41.9247 -88.9464 300° West 397 457 17,500 2,081 Climbing Chicago Center
Thu 08:12:14 PM 41.9717 -89.0833 295° West 406 467 19,500 2,129 Climbing Chicago Center
Thu 08:13:16 PM 42.0097 -89.2667 286° West 431 496 21,900 1,920 Climbing Chicago Center
Thu 08:14:19 PM 42.0400 -89.4225 285° West 434 499 23,500 1,680 Climbing Chicago Center
Thu 08:15:21 PM 42.0714 -89.5961 284° West 456 525 25,400 2,129 Climbing Chicago Center
Thu 08:16:23 PM 42.0814 -89.7564 275° West 435 501 27,900 1,935 Climbing Chicago Center
Thu 08:17:25 PM 42.0928 -89.9314 275° West 436 502 29,400 1,403 Climbing Chicago Center
Thu 08:18:27 PM 42.1036 -90.0975 275° West 446 513 30,800 1,403 Climbing Chicago Center
Thu 08:19:29 PM 42.1156 -90.2647 276° West 451 519 32,300 1,355 Climbing Chicago Center
Thu 08:20:31 PM 42.1278 -90.4317 276° West 452 520 33,600 1,210 Climbing Chicago Center
Thu 08:21:33 PM 42.1400 -90.5994 276° West 454 522 34,800 1,258 Climbing Chicago Center
Thu 08:22:35 PM 42.1542 -90.8017 275° West 455 524 36,200 1,210 Climbing Chicago Center
Thu 08:23:37 PM 42.1639 -90.9706 274° West 454 522 37,300 871 Climbing Chicago Center
Thu 08:24:39 PM 42.1683 -91.1411 272° West 457 526 38,000 336 Climbing Chicago Center
Thu 08:25:42 PM 42.1708 -91.3086 271° West 450 518 38,000  Level Chicago Center
Thu 08:26:44 PM 42.1756 -91.4786 272° West 452 520 38,000  Level Chicago Center
Thu 08:27:46 PM 42.1808 -91.6817 272° West 453 521 38,000  Level Chicago Center
Thu 08:28:48 PM 42.1833 -91.8483 271° West 449 517 38,000  Level Chicago Center
Thu 08:29:50 PM 42.1875 -92.0167 272° West 450 518 38,000  Level Chicago Center
Thu 08:30:52 PM 42.1903 -92.1844 271° West 450 518 38,000  Level Chicago Center
Thu 08:31:54 PM 42.1936 -92.3508 272° West 449 517 38,000  Level Chicago Center
Thu 08:32:56 PM 42.1958 -92.5172 271° West 448 516 38,000  Level Chicago Center
Thu 08:33:58 PM 42.1986 -92.7172 271° West 448 516 38,000  Level Chicago Center
Thu 08:34:28 PM 42.1994 -92.7850 271° West 448 516 38,000  Level Minneapolis Center
Thu 08:35:30 PM 42.2017 -92.9517 271° West 448 516 38,000  Level Minneapolis Center
Thu 08:36:33 PM 42.2033 -93.1536 271° West 452 520 38,000  Level Minneapolis Center
Thu 08:37:35 PM 42.2058 -93.3183 271° West 444 511 38,000  Level Minneapolis Center
Thu 08:38:37 PM 42.2064 -93.4858 270° West 449 517 38,000  Level Minneapolis Center
Thu 08:39:39 PM 42.2089 -93.6522 271° West 445 512 38,000  Level Minneapolis Center
Thu 08:40:41 PM 42.2092 -93.8194 270° West 449 517 38,000  Level Minneapolis Center
Thu 08:41:43 PM 42.2114 -94.0097 271° West 447 514 38,000  Level Minneapolis Center
Thu 08:42:45 PM 42.2117 -94.1772 270° West 447 514 38,000  Level Minneapolis Center
Thu 08:43:47 PM 42.2125 -94.3436 270° West 446 513 38,000  Level Minneapolis Center
Thu 08:45:01 PM 42.2097 -94.5442 269° West 445 512 38,000  Level Minneapolis Center
Thu 08:46:04 PM 42.2078 -94.7447 269° West 446 513 38,000  Level Minneapolis Center
Thu 08:47:06 PM 42.2081 -94.9139 270° West 450 518 38,000  Level Minneapolis Center
Thu 08:48:08 PM 42.2067 -95.0825 269° West 450 518 38,000  Level Minneapolis Center
Thu 08:49:10 PM 42.2047 -95.2472 269° West 443 510 38,000  Level Minneapolis Center
Thu 08:50:12 PM 42.2031 -95.4161 269° West 449 517 38,000  Level Minneapolis Center
Thu 08:51:14 PM 42.2014 -95.6167 269° West 448 516 38,000  Level Minneapolis Center
Thu 08:52:16 PM 42.1992 -95.7847 269° West 449 517 38,000  Level Minneapolis Center
Thu 08:53:30 PM 42.1975 -95.9511 269° West 448 516 38,000  Level Minneapolis Center
Thu 08:54:33 PM 42.1939 -96.1539 269° West 450 518 38,000  Level Minneapolis Center
Thu 08:55:35 PM 42.1908 -96.3208 269° West 451 519 38,000  Level Minneapolis Center
Thu 08:56:37 PM 42.1878 -96.5192 269° West 446 513 38,000  Level Minneapolis Center
Thu 08:57:39 PM 42.1839 -96.6856 268° West 446 513 38,000  Level Minneapolis Center
Thu 08:58:41 PM 42.1800 -96.8517 268° West 445 512 38,000  Level Minneapolis Center
Thu 08:59:43 PM 42.1758 -97.0167 268° West 445 512 38,000  Level Minneapolis Center
Thu 09:00:45 PM 42.1717 -97.1825 268° West 445 512 38,000  Level Minneapolis Center
Thu 09:01:59 PM 42.1669 -97.3478 268° West 445 512 38,000  Level Minneapolis Center
Thu 09:03:02 PM 42.1608 -97.5786 268° West 442 509 38,000  Level Minneapolis Center
Thu 09:04:04 PM 42.1564 -97.7425 268° West 441 507 38,000  Level Minneapolis Center
Thu 09:05:06 PM 42.1508 -97.9136 268° West 442 509 38,000  Level Minneapolis Center
Thu 09:06:08 PM 42.1456 -98.0781 268° West 442 509 38,000  Level Minneapolis Center
Thu 09:07:10 PM 42.1400 -98.2422 267° West 442 509 38,000  Level Minneapolis Center
Thu 09:08:12 PM 42.1336 -98.4058 267° West 440 506 38,000  Level Minneapolis Center
Thu 09:09:26 PM 42.1269 -98.6022 267° West 439 505 38,000  Level Minneapolis Center
Thu 09:10:29 PM 42.1192 -98.7983 267° West 438 504 38,000  Level Minneapolis Center
Thu 09:11:31 PM 42.1128 -98.9625 267° West 440 506 38,000  Level Minneapolis Center
Thu 09:12:33 PM 42.1067 -99.1242 267° West 436 502 38,000  Level Minneapolis Center
Thu 09:13:21 PM 42.0992 -99.2536 266° West 436 502 38,000  Level Denver Center
Thu 09:14:23 PM 42.0922 -99.4172 267° West 437 503 38,000  Level Denver Center
Thu 09:15:24 PM 42.0836 -99.6103 267° West 434 499 38,000  Level Denver Center
Thu 09:16:26 PM 42.0767 -99.7614 267° West 434 499 38,000  Level Denver Center
Thu 09:17:28 PM 42.0672 -99.9414 266° West 432 497 38,000  Level Denver Center
Thu 09:18:30 PM 42.0594 -100.0950 266° West 433 498 38,000  Level Denver Center
Thu 09:19:31 PM 42.0500 -100.2753 266° West 434 499 38,000  Level Denver Center
Thu 09:20:33 PM 42.0422 -100.4289 266° West 432 497 38,000  Level Denver Center
Thu 09:21:35 PM 42.0342 -100.5836 266° West 435 501 38,000  Level Denver Center
Thu 09:22:37 PM 42.0242 -100.7628 266° West 432 497 38,000  Level Denver Center
Thu 09:23:39 PM 42.0153 -100.9164 266° West 432 497 38,000  Level Denver Center
Thu 09:24:40 PM 42.0047 -101.0953 266° West 431 496 38,000  Level Denver Center
Thu 09:25:42 PM 41.9961 -101.2481 266° West 429 494 38,000  Level Denver Center
Thu 09:26:44 PM 41.9850 -101.4247 265° West 427 491 38,000  Level Denver Center
Thu 09:27:46 PM 41.9750 -101.5769 265° West 428 493 38,000  Level Denver Center
Thu 09:28:48 PM 41.9628 -101.7553 265° West 430 495 38,000  Level Denver Center
Thu 09:29:50 PM 41.9597 -101.9072 269° West 431 496 38,000  Level Denver Center
Thu 09:30:52 PM 41.9661 -102.0839 273° West 427 491 38,000  Level Denver Center
Thu 09:31:54 PM 41.9717 -102.2403 273° West 425 489 38,000  Level Denver Center
Thu 09:32:56 PM 41.9769 -102.3900 273° West 420 483 38,000  Level Denver Center
Thu 09:33:58 PM 41.9853 -102.5653 274° West 421 484 38,000  Level Denver Center
Thu 09:35:00 PM 41.9922 -102.7175 274° West 427 491 38,000  Level Denver Center
Thu 09:36:02 PM 42.0025 -102.8933 275° West 423 487 38,000  Level Denver Center
Thu 09:37:04 PM 42.0097 -103.0439 274° West 422 486 38,000  Level Denver Center
Thu 09:38:06 PM 42.0189 -103.2192 274° West 421 484 38,000  Level Denver Center
Thu 09:39:08 PM 42.0264 -103.3700 274° West 423 487 38,000  Level Denver Center
Thu 09:40:10 PM 42.0381 -103.5442 275° West 419 482 38,000  Level Denver Center
Thu 09:41:12 PM 42.0483 -103.6925 275° West 417 480 38,000  Level Denver Center
Thu 09:42:14 PM 42.0572 -103.8397 275° West 413 475 38,000  Level Denver Center
Thu 09:43:16 PM 42.0694 -104.0119 276° West 414 476 38,000  Level Denver Center
Thu 09:44:18 PM 42.0803 -104.1597 276° West 414 476 38,000  Level Denver Center
Thu 09:45:20 PM 42.0942 -104.3314 276° West 412 474 38,000  Level Denver Center
Thu 09:46:22 PM 42.1008 -104.4811 273° West 416 479 38,000  Level Denver Center
Thu 09:47:24 PM 42.1011 -104.6581 270° West 420 483 38,000  Level Denver Center
Thu 09:48:26 PM 42.1042 -104.8081 272° West 418 481 38,000  Level Denver Center
Thu 09:49:28 PM 42.1092 -104.9839 272° West 419 482 38,000  Level Denver Center
Thu 09:50:30 PM 42.1136 -105.1325 272° West 415 478 38,000  Level Denver Center
Thu 09:51:32 PM 42.1192 -105.2825 273° West 417 480 38,000  Level Denver Center
Thu 09:52:35 PM 42.1247 -105.4586 272° West 420 483 38,000  Level Denver Center
Thu 09:53:37 PM 42.1283 -105.6111 272° West 424 488 38,000  Level Denver Center
Thu 09:54:39 PM 42.1344 -105.7892 273° West 424 488 38,000  Level Denver Center
Thu 09:55:41 PM 42.1358 -105.9400 271° West 422 486 38,000  Level Denver Center
Thu 09:56:43 PM 42.1025 -106.1083 255° West 415 478 38,000  Level Denver Center
Thu 09:57:45 PM 42.0758 -106.2528 256° West 416 479 38,000  Level Denver Center
Thu 09:58:47 PM 42.0447 -106.4217 256° West 415 478 38,000  Level Denver Center
Thu 09:59:49 PM 42.0203 -106.5600 257° West 420 483 38,000  Level Denver Center
Thu 10:00:51 PM 41.9869 -106.7275 255° West 418 481 38,000  Level Denver Center
Thu 10:01:53 PM 41.9586 -106.8719 255° West 419 482 38,000  Level Denver Center
Thu 10:02:55 PM 41.9272 -107.0392 256° West 414 476 38,000  Level Denver Center
Thu 10:03:57 PM 41.9006 -107.1831 256° West 414 476 38,000  Level Denver Center
Thu 10:04:59 PM 41.8672 -107.3481 255° West 410 472 38,000  Level Denver Center
Thu 10:06:01 PM 41.8392 -107.4897 255° West 410 472 38,000  Level Denver Center
Thu 10:07:15 PM 41.8069 -107.6547 255° West 410 472 38,000  Level Denver Center
Thu 10:08:17 PM 41.7731 -107.8214 255° West 413 475 38,000  Level Denver Center
Thu 10:09:19 PM 41.7406 -107.9881 255° West 416 479 38,000  Level Denver Center
Thu 10:10:19 PM 41.7094 -108.1333 254° West 421 484 38,000  Level Salt Lake Center
Thu 10:11:23 PM 41.6761 -108.3000 255° West 420 483 38,000  Level Denver Center
Thu 10:12:22 PM 41.6464 -108.4453 255° West 419 482 38,000  Level Salt Lake Center
Thu 10:13:24 PM 41.6125 -108.6136 255° West 420 483 38,000  Level Salt Lake Center
Thu 10:14:26 PM 41.5819 -108.7567 254° West 421 484 38,000  Level Salt Lake Center
Thu 10:15:27 PM 41.5525 -108.8989 255° West 419 482 38,000  Level Salt Lake Center
Thu 10:16:29 PM 41.5183 -109.0642 255° West 419 482 38,000  Level Salt Lake Center
Thu 10:18:33 PM 41.4517 -109.3667 254° West 417 480 38,000  Level Salt Lake Center
Thu 10:19:35 PM 41.4158 -109.5278 254° West 408 470 38,000  Level Salt Lake Center
Thu 10:20:37 PM 41.3850 -109.6675 254° West 411 473 38,000  Level Salt Lake Center
Thu 10:21:38 PM 41.3492 -109.8322 254° West 417 480 38,000  Level Salt Lake Center
Thu 10:22:40 PM 41.3175 -109.9733 253° West 416 479 38,000  Level Salt Lake Center
Thu 10:23:42 PM 41.2858 -110.1150 253° West 418 481 38,000  Level Salt Lake Center
Thu 10:24:44 PM 41.2489 -110.2803 253° West 418 481 38,000  Level Salt Lake Center
Thu 10:25:46 PM 41.2183 -110.4231 254° West 421 484 38,000  Level Salt Lake Center
Thu 10:26:47 PM 41.1931 -110.5947 259° West 425 489 38,000  Level Salt Lake Center
Thu 10:27:49 PM 41.1683 -110.7411 257° West 424 488 38,000  Level Salt Lake Center
Thu 10:28:51 PM 41.1406 -110.9114 258° West 423 487 38,000  Level Salt Lake Center
Thu 10:29:53 PM 41.1183 -111.0497 258° West 424 488 38,000  Level Salt Lake Center
Thu 10:30:54 PM 41.0933 -111.2019 258° West 424 488 38,000  Level Salt Lake Center
Thu 10:31:56 PM 41.0636 -111.3836 258° West 420 483 38,000  Level Salt Lake Center
Thu 10:32:58 PM 41.0381 -111.5342 257° West 417 480 38,000  Level Salt Lake Center
Thu 10:34:00 PM 41.0125 -111.6839 257° West 415 478 38,000  Level Salt Lake Center
Thu 10:35:01 PM 40.9872 -111.8400 258° West 418 481 38,000  Level Salt Lake Center
Thu 10:36:03 PM 40.9581 -111.9958 256° West 430 495 38,000  Level Salt Lake Center
Thu 10:37:05 PM 40.9328 -112.1478 258° West 421 484 38,000  Level Salt Lake Center
Thu 10:38:07 PM 40.9061 -112.2978 257° West 418 481 38,000  Level Salt Lake Center
Thu 10:39:08 PM 40.8803 -112.4472 257° West 419 482 38,000  Level Salt Lake Center
Thu 10:40:10 PM 40.8533 -112.5958 257° West 415 478 38,000  Level Salt Lake Center
Thu 10:41:12 PM 40.8258 -112.7453 256° West 421 484 38,000  Level Salt Lake Center
Thu 10:42:13 PM 40.7936 -112.9211 256° West 412 474 38,000  Level Salt Lake Center
Thu 10:43:15 PM 40.7664 -113.0683 256° West 413 475 38,000  Level Salt Lake Center
Thu 10:44:17 PM 40.7392 -113.2153 256° West 414 476 38,000  Level Salt Lake Center
Thu 10:45:19 PM 40.7142 -113.3617 257° West 411 473 38,000  Level Salt Lake Center
Thu 10:46:20 PM 40.6836 -113.5103 255° West 418 481 38,000  Level Salt Lake Center
Thu 10:47:22 PM 40.6553 -113.6558 256° West 413 475 38,000  Level Salt Lake Center
Thu 10:48:24 PM 40.6278 -113.8025 256° West 413 475 38,000  Level Salt Lake Center
Thu 10:50:27 PM 40.5658 -114.1236 256° West 412 474 38,000  Level Salt Lake Center
Thu 10:51:29 PM 40.5367 -114.2717 256° West 419 482 38,000  Level Salt Lake Center
Thu 10:52:31 PM 40.5081 -114.4172 256° West 414 476 38,000  Level Salt Lake Center
Thu 10:53:33 PM 40.4800 -114.5656 256° West 419 482 38,000  Level Salt Lake Center
Thu 10:54:34 PM 40.4506 -114.7108 255° West 414 476 38,000  Level Salt Lake Center
Thu 10:55:36 PM 40.4175 -114.8758 255° West 418 481 38,000  Level Salt Lake Center
Thu 10:56:38 PM 40.3883 -115.0156 255° West 415 478 38,000  Level Salt Lake Center
Thu 10:57:39 PM 40.3550 -115.1772 255° West 411 473 38,000  Level Salt Lake Center
Thu 10:58:41 PM 40.3267 -115.3169 255° West 413 475 38,000  Level Salt Lake Center
Thu 10:59:42 PM 40.2989 -115.4581 256° West 417 480 38,000  Level Salt Lake Center
Thu 11:00:44 PM 40.2639 -115.6247 255° West 421 484 38,000  Level Salt Lake Center
Thu 11:01:46 PM 40.2336 -115.7656 254° West 422 486 38,000  Level Salt Lake Center
Thu 11:02:48 PM 40.1964 -115.9300 254° West 422 486 38,000  Level Salt Lake Center
Thu 11:03:49 PM 40.1686 -116.0711 256° West 418 481 38,000  Level Salt Lake Center
Thu 11:04:51 PM 40.1306 -116.2367 253° West 423 487 38,000  Level Salt Lake Center
Thu 11:05:52 PM 40.1006 -116.3761 254° West 416 479 38,000  Level Salt Lake Center
Thu 11:06:54 PM 40.0708 -116.5147 254° West 413 475 38,000  Level Salt Lake Center
Thu 11:07:55 PM 40.0342 -116.6783 254° West 414 476 38,000  Level Salt Lake Center
Thu 11:08:57 PM 40.0039 -116.8158 254° West 414 476 38,000  Level Salt Lake Center
Thu 11:09:59 PM 39.9733 -116.9536 254° West 411 473 38,000  Level Salt Lake Center
Thu 11:11:00 PM 39.9381 -117.1144 254° West 411 473 38,000  Level Salt Lake Center
Thu 11:12:02 PM 39.9067 -117.2508 253° West 410 472 38,000  Level Salt Lake Center
Thu 11:13:03 PM 39.8706 -117.4106 254° West 411 473 38,000  Level Salt Lake Center
Thu 11:14:05 PM 39.8397 -117.5472 254° West 410 472 38,000  Level Salt Lake Center
Thu 11:15:06 PM 39.8097 -117.6761 253° West 411 473 38,000  Level Salt Lake Center
Thu 11:16:07 PM 39.7706 -117.8486 254° West 414 476 38,000  Level Salt Lake Center
Thu 11:17:09 PM 39.7378 -117.9911 253° West 413 475 38,000  Level Salt Lake Center
Thu 11:18:10 PM 39.7050 -118.1342 253° West 415 478 38,000  Level Salt Lake Center
Thu 11:19:12 PM 39.6711 -118.2772 253° West 416 479 38,000  Level Salt Lake Center
Thu 11:20:13 PM 39.6375 -118.4203 253° West 416 479 38,000  Level Salt Lake Center
Thu 11:21:15 PM 39.6042 -118.5617 253° West 415 478 38,000  Level Salt Lake Center
Thu 11:22:16 PM 39.5711 -118.7025 253° West 415 478 38,000  Level Salt Lake Center
Thu 11:23:17 PM 39.5300 -118.8697 252° West 416 479 38,000 -125 Level Salt Lake Center
Thu 11:24:40 PM 39.4822 -119.0664 253° West 414 476 37,700 -542 Descending Oakland Center
Thu 11:25:41 PM 39.4469 -119.2042 252° West 408 470 36,700 -934 Descending Oakland Center
Thu 11:26:42 PM 39.4122 -119.3461 252° West 415 478 35,800 -885 Descending Oakland Center
Thu 11:27:43 PM 39.3783 -119.4892 253° West 417 480 34,900 -1,328 Descending Oakland Center
Thu 11:28:44 PM 39.3428 -119.6333 252° West 421 484 33,100 -2,146 Descending Oakland Center
Thu 11:29:46 PM 39.3058 -119.7744 251° West 419 482 30,500 -2,341 Descending Oakland Center
Thu 11:30:47 PM 39.2728 -119.9125 253° West 407 468 28,300 -2,164 Descending Oakland Center
Thu 11:31:48 PM 39.2381 -120.0472 252° West 397 457 26,100 -2,311 Descending Oakland Center
Thu 11:32:49 PM 39.1983 -120.1967 251° West 382 440 23,600 -2,262 Descending Oakland Center
Thu 11:33:50 PM 39.1650 -120.3247 251° West 377 434 21,500 -2,066 Descending Oakland Center
Thu 11:34:51 PM 39.1344 -120.4511 253° West 371 427 19,400 -2,049 Descending Oakland Center
Thu 11:35:53 PM 39.1017 -120.5739 251° West 364 419 17,300 -1,659 Descending Oakland Center
Thu 11:36:54 PM 39.0717 -120.6922 252° West 350 403 16,000 -639 Descending Oakland Center
Thu 11:37:55 PM 39.0422 -120.8086 252° West 345 397 16,000 -1,525 Level Oakland Center
Thu 11:38:56 PM 39.0117 -120.9289 252° West 354 407 12,900 -2,951 Descending Oakland Center
Thu 11:39:57 PM 38.9769 -121.0581 251° West 382 440 10,000 -1,800 Descending Oakland Center
Thu 11:40:36 PM 38.9500 -121.1500 249° West 323 372 9,900 -1,533 Descending Northern Cal TRACON
Thu 11:43:01 PM 38.8956 -121.3822 253° West 288 331 5,300 -1,800 Descending Oakland Center
Thu 11:43:36 PM 38.9000 -121.4500 275° West 280 322 4,500 -1,642 Descending Northern Cal TRACON
Thu 11:44:36 PM 38.9000 -121.5333 270° West 280 322 2,700 -1,000 Descending Northern Cal TRACON
Thu 11:46:36 PM 38.8000 -121.6000 207° Southwest 173 199 1,500 -633 Descending Northern Cal TRACON
Thu 11:47:36 PM 38.7500 -121.6000 180° South 145 167 800 -700 Descending Northern Cal TRACON
Thu 11:48:36 PM 38.7167 -121.6000 180° South 133 153 100 -700 Descending Northern Cal TRACON
Thu 11:51:00 PM 38.6954 -121.5908 90° East  Level Estimated

Login

Don't have an account? Register now (free) for customized features, flight alerts, and more!